Time;durP1;ratioP1;P1;durP2;ratioP2;P2;SDS_P1;SDS_P2;PMS_P1;PMS_P2;Temp;Humidity;BMP_temperature;BMP_pressure;BME280_temperature;BME280_humidity;BME280_pressure;Samples;Min_cycle;Max_cycle;Signal;HPM_P1;HPM_P2
2023/01/25 00:00:03;;;;;;;;;;;128.70;2252.80;;;;;;5056384;28;19995;-76
2023/01/25 00:02:29;;;;;;;;;;;128.60;2252.80;;;;;;5037810;28;19959;-76
2023/01/25 00:04:54;;;;;;;;;;;128.50;2252.80;;;;;;5038091;28;19909;-76
2023/01/25 00:07:20;;;;;;;;;;;128.50;2252.80;;;;;;5038275;28;20003;-75
2023/01/25 00:09:46;;;;;;;;;;;128.60;2252.80;;;;;;5037949;28;19954;-75
2023/01/25 00:12:11;;;;;;;;;;;128.80;2252.80;;;;;;5056130;28;19928;-76
2023/01/25 00:14:37;;;;;;;;;;;128.80;2252.80;;;;;;5038576;28;19911;-75
2023/01/25 00:17:02;;;;;;;;;;;128.90;2252.80;;;;;;5037629;28;19905;-75
2023/01/25 00:19:28;;;;;;;;;;;128.90;2252.80;;;;;;5038095;28;19905;-76
2023/01/25 00:21:53;;;;;;;;;;;128.90;2252.80;;;;;;5034823;28;19973;-76
2023/01/25 00:24:21;;;;;;;;;;;153.60;2252.80;;;;;;5037047;28;19904;-75
2023/01/25 00:26:47;;;;;;;;;;;128.90;2252.80;;;;;;5055933;28;19909;-75
2023/01/25 00:29:13;;;;;;;;;;;128.90;2252.80;;;;;;5055813;28;19935;-75
2023/01/25 00:31:47;;;;;;;;;;;128.90;2252.80;;;;;;5056155;28;19908;-76
2023/01/25 00:34:22;;;;;;;;;;;128.90;2252.80;;;;;;5051082;28;19940;-76
2023/01/25 00:36:48;;;;;;;;;;;153.60;2252.80;;;;;;5055652;28;19947;-75
2023/01/25 00:39:14;;;;;;;;;;;153.60;2252.80;;;;;;5055681;28;19916;-74
2023/01/25 00:41:39;;;;;;;;;;;128.90;2252.80;;;;;;5037628;28;19905;-75
2023/01/25 00:44:05;;;;;;;;;;;128.80;2252.80;;;;;;5038364;28;19912;-75
2023/01/25 00:46:31;;;;;;;;;;;128.80;2252.80;;;;;;5055225;28;19905;-75
2023/01/25 00:48:57;;;;;;;;;;;128.90;2252.80;;;;;;5055532;28;19905;-76
2023/01/25 00:51:23;;;;;;;;;;;128.90;2252.80;;;;;;5055259;28;19913;-75
2023/01/25 00:53:48;;;;;;;;;;;128.70;2252.80;;;;;;5055361;28;19915;-75
2023/01/25 00:56:14;;;;;;;;;;;128.60;2252.80;;;;;;5047985;28;19909;-75
2023/01/25 00:58:40;;;;;;;;;;;128.70;2252.80;;;;;;5054876;28;19917;-75
2023/01/25 01:01:06;;;;;;;;;;;128.80;2252.80;;;;;;5055476;28;19915;-75
2023/01/25 01:03:31;;;;;;;;;;;128.90;2252.80;;;;;;5055181;28;20025;-74
2023/01/25 01:06:01;;;;;;;;;;;128.80;2252.80;;;;;;5036856;28;19904;-75
2023/01/25 01:08:26;;;;;;;;;;;128.90;2252.80;;;;;;5037222;28;19912;-76
2023/01/25 01:10:57;;;;;;;;;;;128.90;2252.80;;;;;;5037022;28;19913;-75
2023/01/25 01:13:22;;;;;;;;;;;128.90;2252.80;;;;;;5037156;28;20354;-75
2023/01/25 01:15:48;;;;;;;;;;;128.90;2252.80;;;;;;5037252;28;20010;-75
2023/01/25 01:18:13;;;;;;;;;;;128.80;2252.80;;;;;;5034797;28;20401;-74
2023/01/25 01:20:39;;;;;;;;;;;128.80;2252.80;;;;;;5036160;28;19915;-75
2023/01/25 01:23:04;;;;;;;;;;;128.90;2252.80;;;;;;5036833;28;19908;-75
2023/01/25 01:25:31;;;;;;;;;;;128.90;2252.80;;;;;;5036796;28;19911;-75
2023/01/25 01:27:56;;;;;;;;;;;128.90;2252.80;;;;;;5034681;28;19982;-74
2023/01/25 01:30:22;;;;;;;;;;;128.90;2252.80;;;;;;5037196;28;20353;-75
2023/01/25 01:32:49;;;;;;;;;;;128.90;2252.80;;;;;;5054918;28;19911;-75
2023/01/25 01:35:15;;;;;;;;;;;128.90;2252.80;;;;;;5034621;28;20003;-75
2023/01/25 01:37:41;;;;;;;;;;;128.90;2252.80;;;;;;5036249;28;19919;-75
2023/01/25 01:40:07;;;;;;;;;;;128.80;2252.80;;;;;;5037095;28;19927;-75
2023/01/25 01:42:53;;;;;;;;;;;128.80;2252.80;;;;;;5037533;28;20358;-76
2023/01/25 01:45:37;;;;;;;;;;;128.70;2252.80;;;;;;5036684;28;19905;-75
2023/01/25 01:48:03;;;;;;;;;;;128.70;2252.80;;;;;;5052472;28;19904;-75
2023/01/25 01:50:28;;;;;;;;;;;128.70;2252.80;;;;;;5036723;28;19916;-75
2023/01/25 01:52:54;;;;;;;;;;;128.60;2252.80;;;;;;5054861;28;20267;-75
2023/01/25 01:55:22;;;;;;;;;;;128.70;2252.80;;;;;;5036944;28;19959;-76
2023/01/25 01:57:56;;;;;;;;;;;128.70;2252.80;;;;;;5054450;28;19912;-75
2023/01/25 02:00:24;;;;;;;;;;;128.70;2252.80;;;;;;5051989;28;19911;-75
2023/01/25 02:02:50;;;;;;;;;;;128.90;2252.80;;;;;;5054624;28;19974;-75
2023/01/25 02:05:31;;;;;;;;;;;128.60;2252.80;;;;;;5036655;28;19943;-75
2023/01/25 02:07:57;;;;;;;;;;;128.50;2252.80;;;;;;5044236;28;20002;-75
2023/01/25 02:10:24;;;;;;;;;;;128.50;2252.80;;;;;;5033860;28;19919;-75
2023/01/25 02:12:50;;;;;;;;;;;128.50;2252.80;;;;;;5028166;28;19905;-75
2023/01/25 02:15:16;;;;;;;;;;;128.40;2252.80;;;;;;5036555;28;19915;-75
2023/01/25 02:17:41;;;;;;;;;;;128.40;2252.80;;;;;;5035935;28;20295;-75
2023/01/25 02:20:07;;;;;;;;;;;128.40;2252.80;;;;;;5054163;28;19955;-76
2023/01/25 02:22:56;;;;;;;;;;;128.40;2252.80;;;;;;5036375;28;20286;-75
2023/01/25 02:25:21;;;;;;;;;;;128.30;2252.80;;;;;;4954016;29;19906;-75
2023/01/25 02:27:50;;;;;;;;;;;128.30;2252.80;;;;;;4937957;29;19912;-75
2023/01/25 02:30:15;;;;;;;;;;;128.20;2252.80;;;;;;4937926;29;19914;-75
2023/01/25 02:32:41;;;;;;;;;;;128.30;2252.80;;;;;;4937742;29;19965;-75
2023/01/25 02:35:07;;;;;;;;;;;128.30;2252.80;;;;;;4954020;29;20387;-76
2023/01/25 02:37:32;;;;;;;;;;;128.60;2252.80;;;;;;4938029;29;19907;-75
2023/01/25 02:39:58;;;;;;;;;;;128.20;2252.80;;;;;;4938037;29;20249;-76
2023/01/25 02:42:23;;;;;;;;;;;128.30;2252.80;;;;;;4937781;29;19914;-75
2023/01/25 02:44:49;;;;;;;;;;;128.50;2252.80;;;;;;4953898;29;19906;-75
2023/01/25 02:47:15;;;;;;;;;;;128.50;2252.80;;;;;;4937277;29;19906;-76
2023/01/25 02:49:40;;;;;;;;;;;128.60;2252.80;;;;;;4953529;29;19922;-75
2023/01/25 02:52:06;;;;;;;;;;;128.60;2252.80;;;;;;4936573;29;20401;-75
2023/01/25 02:54:32;;;;;;;;;;;128.70;2252.80;;;;;;4937590;29;19906;-76
2023/01/25 02:56:57;;;;;;;;;;;128.60;2252.80;;;;;;4953511;29;19933;-76
2023/01/25 02:59:23;;;;;;;;;;;128.70;2252.80;;;;;;4953531;28;20305;-75
2023/01/25 03:01:48;;;;;;;;;;;128.50;2252.80;;;;;;4963223;28;19904;-75
2023/01/25 03:04:14;;;;;;;;;;;128.50;2252.80;;;;;;5053557;28;19995;-75
2023/01/25 03:06:40;;;;;;;;;;;128.40;2252.80;;;;;;5035406;28;20340;-76
2023/01/25 03:09:07;;;;;;;;;;;128.40;2252.80;;;;;;5053464;28;19908;-75
2023/01/25 03:11:32;;;;;;;;;;;128.60;2252.80;;;;;;5053591;28;19916;-75
2023/01/25 03:13:58;;;;;;;;;;;128.40;2252.80;;;;;;5035365;28;19905;-75
2023/01/25 03:16:24;;;;;;;;;;;128.50;2252.80;;;;;;5026774;28;20428;-76
2023/01/25 03:18:52;;;;;;;;;;;128.60;2252.80;;;;;;5027206;28;19957;-75
2023/01/25 03:21:18;;;;;;;;;;;128.50;2252.80;;;;;;5035314;28;19908;-76
2023/01/25 03:23:44;;;;;;;;;;;128.50;2252.80;;;;;;5035556;28;19916;-76
2023/01/25 03:26:13;;;;;;;;;;;128.50;2252.80;;;;;;5053044;28;19912;-76
2023/01/25 03:28:39;;;;;;;;;;;128.60;2252.80;;;;;;5034486;28;20358;-76
2023/01/25 03:31:06;;;;;;;;;;;128.80;2252.80;;;;;;5034496;28;19913;-76
2023/01/25 03:33:31;;;;;;;;;;;128.50;2252.80;;;;;;5037337;28;20246;-76
2023/01/25 03:35:57;;;;;;;;;;;128.40;2252.80;;;;;;5033815;28;19905;-76
2023/01/25 03:38:22;;;;;;;;;;;128.40;2252.80;;;;;;5034565;28;20337;-76
2023/01/25 03:40:48;;;;;;;;;;;128.60;2252.80;;;;;;5034007;28;19912;-76
2023/01/25 03:43:14;;;;;;;;;;;128.60;2252.80;;;;;;5034073;28;19912;-76
2023/01/25 03:45:39;;;;;;;;;;;128.50;2252.80;;;;;;5034182;28;20365;-76
2023/01/25 03:48:05;;;;;;;;;;;128.50;2252.80;;;;;;5033482;28;19963;-76
2023/01/25 03:50:31;;;;;;;;;;;128.70;2252.80;;;;;;5051852;28;19931;-75
2023/01/25 03:53:26;;;;;;;;;;;128.80;2252.80;;;;;;5034237;28;20378;-76
2023/01/25 03:55:52;;;;;;;;;;;128.80;2252.80;;;;;;5032944;28;19971;-76
2023/01/25 03:58:17;;;;;;;;;;;128.80;2252.80;;;;;;5038567;28;19967;-76
2023/01/25 04:00:43;;;;;;;;;;;128.50;2252.80;;;;;;5034108;28;20315;-76
2023/01/25 04:03:09;;;;;;;;;;;128.40;2252.80;;;;;;5051833;28;19947;-76
2023/01/25 04:05:34;;;;;;;;;;;128.40;2252.80;;;;;;5034075;28;19996;-76
2023/01/25 04:08:00;;;;;;;;;;;128.40;2252.80;;;;;;5034066;28;20355;-76
2023/01/25 04:10:25;;;;;;;;;;;128.40;2252.80;;;;;;5033942;28;19983;-76
2023/01/25 04:12:51;;;;;;;;;;;128.50;2252.80;;;;;;5033773;28;19911;-76
2023/01/25 04:15:16;;;;;;;;;;;128.50;2252.80;;;;;;5034091;28;19905;-77
2023/01/25 04:17:42;;;;;;;;;;;128.20;2252.80;;;;;;5033882;28;19905;-76
2023/01/25 04:20:08;;;;;;;;;;;128.10;2252.80;;;;;;5033605;28;19909;-75
2023/01/25 04:22:33;;;;;;;;;;;128.20;2252.80;;;;;;5033827;28;19908;-76
2023/01/25 04:24:59;;;;;;;;;;;128.30;2252.80;;;;;;5051963;28;19908;-78
2023/01/25 04:27:25;;;;;;;;;;;128.50;2252.80;;;;;;5033222;28;20499;-78
2023/01/25 04:29:50;;;;;;;;;;;128.60;2252.80;;;;;;5033571;28;19913;-75
2023/01/25 04:32:16;;;;;;;;;;;128.30;2252.80;;;;;;5051527;28;19908;-75
2023/01/25 04:34:41;;;;;;;;;;;128.20;2252.80;;;;;;5051726;28;20416;-76
2023/01/25 04:37:07;;;;;;;;;;;128.40;2252.80;;;;;;5033691;28;20270;-76
2023/01/25 04:39:32;;;;;;;;;;;128.60;2252.80;;;;;;5033787;28;20374;-76
2023/01/25 04:41:58;;;;;;;;;;;128.70;2252.80;;;;;;5035842;28;19908;-76
2023/01/25 04:44:24;;;;;;;;;;;128.60;2252.80;;;;;;5037060;28;19904;-77
2023/01/25 04:46:49;;;;;;;;;;;128.60;2252.80;;;;;;5037021;28;19909;-76
2023/01/25 04:49:15;;;;;;;;;;;128.30;2252.80;;;;;;5054889;28;19916;-77
2023/01/25 04:51:40;;;;;;;;;;;128.10;2252.80;;;;;;5055468;28;20366;-76
2023/01/25 04:54:06;;;;;;;;;;;128.00;2252.80;;;;;;5024889;28;20007;-77
2023/01/25 04:56:31;;;;;;;;;;;128.20;2252.80;;;;;;5038276;28;19904;-76
2023/01/25 04:58:57;;;;;;;;;;;128.40;2252.80;;;;;;5037634;28;19923;-76
2023/01/25 05:01:22;;;;;;;;;;;128.60;2252.80;;;;;;5038157;28;19911;-76
2023/01/25 05:03:48;;;;;;;;;;;128.60;2252.80;;;;;;5037598;28;19905;-77
2023/01/25 05:06:13;;;;;;;;;;;128.40;2252.80;;;;;;5038232;28;20281;-79
2023/01/25 05:08:39;;;;;;;;;;;128.20;2252.80;;;;;;5038057;28;19908;-78
2023/01/25 05:11:05;;;;;;;;;;;128.10;2252.80;;;;;;5038028;28;19966;-78
2023/01/25 05:13:30;;;;;;;;;;;128.20;2252.80;;;;;;5037819;28;19905;-76
2023/01/25 05:15:56;;;;;;;;;;;128.40;2252.80;;;;;;5038089;28;19913;-77
2023/01/25 05:18:22;;;;;;;;;;;128.30;2252.80;;;;;;5055652;28;19905;-77
2023/01/25 05:20:52;;;;;;;;;;;128.40;2252.80;;;;;;5037762;28;19962;-76
2023/01/25 05:23:18;;;;;;;;;;;128.30;2252.80;;;;;;5055732;28;20351;-76
2023/01/25 05:28:27;;;;;;;;;;;128.30;2252.80;;;;;;5042403;28;19951;-76
2023/01/25 05:30:53;;;;;;;;;;;128.30;2252.80;;;;;;5055427;28;19952;-76
2023/01/25 05:33:18;;;;;;;;;;;128.10;2252.80;;;;;;5055300;28;19904;-76
2023/01/25 05:35:44;;;;;;;;;;;103.30;2227.20;;;;;;5037450;28;19911;-77
2023/01/25 05:38:09;;;;;;;;;;;103.30;2227.20;;;;;;5037612;28;20294;-78
2023/01/25 05:40:35;;;;;;;;;;;128.10;2252.80;;;;;;5055170;28;20387;-77
2023/01/25 05:43:01;;;;;;;;;;;128.20;2252.80;;;;;;5037371;28;20313;-78
2023/01/25 05:45:26;;;;;;;;;;;128.30;2252.80;;;;;;5055202;28;19904;-77
2023/01/25 05:47:53;;;;;;;;;;;128.40;2252.80;;;;;;5055209;28;19927;-76
2023/01/25 05:50:18;;;;;;;;;;;128.40;2252.80;;;;;;5037017;28;20020;-77
2023/01/25 05:52:45;;;;;;;;;;;128.50;2252.80;;;;;;5036049;28;20029;-76
2023/01/25 05:55:10;;;;;;;;;;;128.50;2252.80;;;;;;5054289;28;19905;-76
2023/01/25 05:57:36;;;;;;;;;;;128.40;2252.80;;;;;;5036779;28;19908;-76
2023/01/25 06:00:02;;;;;;;;;;;128.50;2252.80;;;;;;5036476;28;20004;-76
2023/01/25 06:02:28;;;;;;;;;;;128.60;2252.80;;;;;;5054672;28;19908;-76
2023/01/25 06:04:54;;;;;;;;;;;128.30;2252.80;;;;;;5054811;28;20421;-76
2023/01/25 06:07:19;;;;;;;;;;;128.20;2252.80;;;;;;5054616;28;19931;-76
2023/01/25 06:09:45;;;;;;;;;;;128.20;2252.80;;;;;;5036804;28;19914;-76
2023/01/25 06:12:11;;;;;;;;;;;128.30;2252.80;;;;;;5036698;28;19905;-76
2023/01/25 06:14:36;;;;;;;;;;;128.30;2252.80;;;;;;5036443;28;19962;-76
2023/01/25 06:17:02;;;;;;;;;;;128.40;2252.80;;;;;;5036568;28;19954;-76
2023/01/25 06:19:27;;;;;;;;;;;128.50;2252.80;;;;;;5035599;28;20270;-76
2023/01/25 06:21:53;;;;;;;;;;;128.50;2252.80;;;;;;5033139;28;19968;-76
2023/01/25 06:24:18;;;;;;;;;;;128.30;2252.80;;;;;;5023582;28;20351;-75
2023/01/25 06:26:44;;;;;;;;;;;128.20;2252.80;;;;;;5033295;28;20290;-78
2023/01/25 06:29:09;;;;;;;;;;;128.20;2252.80;;;;;;5034040;28;19960;-76
2023/01/25 06:31:35;;;;;;;;;;;128.10;2252.80;;;;;;5033029;28;19905;-78
2023/01/25 06:34:03;;;;;;;;;;;128.20;2252.80;;;;;;5034370;28;20399;-76
2023/01/25 06:36:29;;;;;;;;;;;128.40;2252.80;;;;;;5032945;28;20274;-79
2023/01/25 06:38:54;;;;;;;;;;;128.40;2252.80;;;;;;5034401;28;19987;-76
2023/01/25 06:41:20;;;;;;;;;;;128.50;2252.80;;;;;;5032997;28;19911;-77
2023/01/25 06:43:46;;;;;;;;;;;128.60;2252.80;;;;;;5032893;28;19905;-77
2023/01/25 06:46:12;;;;;;;;;;;128.60;2252.80;;;;;;5025986;28;19912;-76
2023/01/25 06:48:38;;;;;;;;;;;128.60;2252.80;;;;;;5023632;28;19957;-76
2023/01/25 06:51:05;;;;;;;;;;;128.60;2252.80;;;;;;5032665;28;19920;-78
2023/01/25 06:53:32;;;;;;;;;;;128.70;2252.80;;;;;;5033961;28;19917;-76
2023/01/25 06:56:00;;;;;;;;;;;128.70;2252.80;;;;;;5032912;28;19905;-75
2023/01/25 06:58:27;;;;;;;;;;;128.70;2252.80;;;;;;5033615;28;20286;-76
2023/01/25 07:00:53;;;;;;;;;;;128.60;2252.80;;;;;;5015919;28;19905;-77
2023/01/25 07:03:18;;;;;;;;;;;128.60;2252.80;;;;;;5016073;28;20345;-76
2023/01/25 07:05:45;;;;;;;;;;;128.70;2252.80;;;;;;5033309;28;19925;-77
2023/01/25 07:08:10;;;;;;;;;;;128.70;2252.80;;;;;;5031739;28;19967;-77
2023/01/25 07:10:36;;;;;;;;;;;128.70;2252.80;;;;;;5034200;28;19924;-75
2023/01/25 07:13:02;;;;;;;;;;;128.60;2252.80;;;;;;5042711;28;19995;-76
2023/01/25 07:15:27;;;;;;;;;;;128.70;2252.80;;;;;;5036631;28;19912;-77
2023/01/25 07:17:53;;;;;;;;;;;128.70;2252.80;;;;;;5025759;28;20363;-75
2023/01/25 07:20:18;;;;;;;;;;;128.90;2252.80;;;;;;5024907;28;20312;-76
2023/01/25 07:22:44;;;;;;;;;;;128.90;2252.80;;;;;;5023794;28;20398;-76
2023/01/25 07:25:10;;;;;;;;;;;128.80;2252.80;;;;;;5040324;28;19905;-75
2023/01/25 07:27:35;;;;;;;;;;;128.80;2252.80;;;;;;5037049;28;19951;-76
2023/01/25 07:30:02;;;;;;;;;;;128.60;2252.80;;;;;;5042417;28;19924;-75
2023/01/25 07:32:27;;;;;;;;;;;128.60;2252.80;;;;;;5041836;28;20379;-75
2023/01/25 07:34:53;;;;;;;;;;;128.60;2252.80;;;;;;5028436;28;19955;-75
2023/01/25 07:37:19;;;;;;;;;;;128.80;2252.80;;;;;;5038874;28;20008;-76
2023/01/25 07:39:48;;;;;;;;;;;128.80;2252.80;;;;;;5040358;28;19905;-74
2023/01/25 07:42:14;;;;;;;;;;;128.90;2252.80;;;;;;5041182;28;19927;-74
2023/01/25 07:44:39;;;;;;;;;;;128.80;2252.80;;;;;;5037023;28;20366;-75
2023/01/25 07:47:05;;;;;;;;;;;128.50;2252.80;;;;;;5037167;28;19909;-75
2023/01/25 07:49:31;;;;;;;;;;;128.70;2252.80;;;;;;5032264;28;20367;-75
2023/01/25 07:51:56;;;;;;;;;;;128.90;2252.80;;;;;;5037284;28;19912;-75
2023/01/25 07:54:22;;;;;;;;;;;128.80;2252.80;;;;;;5036528;28;19912;-77
2023/01/25 07:56:48;;;;;;;;;;;128.90;2252.80;;;;;;5016012;28;19963;-77
2023/01/25 07:59:14;;;;;;;;;;;128.90;2252.80;;;;;;5012571;28;19979;-74
2023/01/25 08:01:40;;;;;;;;;;;128.90;2252.80;;;;;;5037230;28;20363;-75
2023/01/25 08:04:05;;;;;;;;;;;128.90;2252.80;;;;;;5014888;28;20007;-76
2023/01/25 08:06:37;;;;;;;;;;;128.70;2252.80;;;;;;5014396;28;19905;-76
2023/01/25 08:09:05;;;;;;;;;;;128.70;2252.80;;;;;;5018140;28;19905;-77
2023/01/25 08:11:31;;;;;;;;;;;128.90;2252.80;;;;;;5038427;28;20351;-76
2023/01/25 08:13:57;;;;;;;;;;;128.80;2252.80;;;;;;5037366;28;19905;-76
2023/01/25 08:16:24;;;;;;;;;;;128.60;2252.80;;;;;;5020464;28;19919;-75
2023/01/25 08:18:51;;;;;;;;;;;128.60;2252.80;;;;;;5021288;28;19930;-74
2023/01/25 08:21:17;;;;;;;;;;;128.60;2252.80;;;;;;5038508;28;20343;-75
2023/01/25 08:23:43;;;;;;;;;;;128.70;2252.80;;;;;;5039414;28;19920;-74
2023/01/25 08:26:09;;;;;;;;;;;128.40;2252.80;;;;;;5041119;28;19904;-74
2023/01/25 08:28:35;;;;;;;;;;;128.50;2252.80;;;;;;5048033;28;20300;-74
2023/01/25 08:31:07;;;;;;;;;;;128.70;2252.80;;;;;;5047411;28;19913;-75
2023/01/25 08:33:33;;;;;;;;;;;128.90;2252.80;;;;;;5021074;28;19913;-75
2023/01/25 08:35:58;;;;;;;;;;;128.80;2252.80;;;;;;5042477;28;19924;-75
2023/01/25 08:38:24;;;;;;;;;;;128.60;2252.80;;;;;;5018002;28;19952;-75
2023/01/25 08:40:49;;;;;;;;;;;128.30;2252.80;;;;;;5040028;28;19905;-75
2023/01/25 08:43:15;;;;;;;;;;;128.50;2252.80;;;;;;5030669;28;19936;-75
2023/01/25 08:45:41;;;;;;;;;;;128.60;2252.80;;;;;;5015134;28;19905;-74
2023/01/25 08:48:06;;;;;;;;;;;128.60;2252.80;;;;;;5045878;28;19913;-76
2023/01/25 08:50:32;;;;;;;;;;;128.50;2252.80;;;;;;5017431;28;19920;-75
2023/01/25 08:52:57;;;;;;;;;;;128.60;2252.80;;;;;;5018014;28;19966;-77
2023/01/25 08:55:23;;;;;;;;;;;128.70;2252.80;;;;;;5046444;28;19911;-75
2023/01/25 08:57:48;;;;;;;;;;;128.70;2252.80;;;;;;5014633;28;19913;-76
2023/01/25 09:00:14;;;;;;;;;;;128.50;2252.80;;;;;;5021404;28;20346;-77
2023/01/25 09:02:40;;;;;;;;;;;128.40;2252.80;;;;;;5022436;28;19995;-76
2023/01/25 09:05:05;;;;;;;;;;;128.50;2252.80;;;;;;5023235;28;19908;-76
2023/01/25 09:07:36;;;;;;;;;;;128.50;2252.80;;;;;;5017753;28;19911;-76
2023/01/25 09:10:02;;;;;;;;;;;128.60;2252.80;;;;;;5039456;28;19948;-76
2023/01/25 09:12:28;;;;;;;;;;;128.60;2252.80;;;;;;5017359;28;19943;-76
2023/01/25 09:14:53;;;;;;;;;;;128.60;2252.80;;;;;;5018731;28;20274;-76
2023/01/25 09:17:19;;;;;;;;;;;128.50;2252.80;;;;;;5017323;28;19905;-76
2023/01/25 09:19:46;;;;;;;;;;;128.50;2252.80;;;;;;5016937;28;19912;-76
2023/01/25 09:22:11;;;;;;;;;;;128.60;2252.80;;;;;;5016381;28;20290;-75
2023/01/25 09:24:37;;;;;;;;;;;128.70;2252.80;;;;;;5017332;28;19909;-76
2023/01/25 09:27:02;;;;;;;;;;;128.90;2252.80;;;;;;5017878;28;19905;-77
2023/01/25 09:29:28;;;;;;;;;;;153.60;2252.80;;;;;;5016219;28;19913;-75
2023/01/25 09:31:53;;;;;;;;;;;153.70;2252.80;;;;;;5036909;28;19905;-77
2023/01/25 09:34:21;;;;;;;;;;;153.80;2252.80;;;;;;5016903;28;19905;-77
2023/01/25 09:36:46;;;;;;;;;;;154.00;2252.80;;;;;;5020277;28;19908;-74
2023/01/25 09:39:12;;;;;;;;;;;154.00;2252.80;;;;;;5040152;28;20388;-75
2023/01/25 09:41:50;;;;;;;;;;;154.00;2252.80;;;;;;5016106;28;19911;-77
2023/01/25 09:44:16;;;;;;;;;;;153.90;2252.80;;;;;;5016196;28;19983;-77
2023/01/25 09:46:41;;;;;;;;;;;154.00;2252.80;;;;;;5040336;28;20015;-77
2023/01/25 09:49:16;;;;;;;;;;;154.00;2252.80;;;;;;5035719;28;19905;-80
2023/01/25 09:51:41;;;;;;;;;;;154.20;2252.80;;;;;;5034134;28;19936;-77
2023/01/25 09:54:08;;;;;;;;;;;154.10;2252.80;;;;;;5038319;28;20263;-77
2023/01/25 09:56:35;;;;;;;;;;;154.10;2252.80;;;;;;5017317;28;19912;-76
2023/01/25 09:59:08;;;;;;;;;;;154.10;2252.80;;;;;;5036568;28;19939;-77
2023/01/25 10:01:40;;;;;;;;;;;154.20;2252.80;;;;;;5037086;28;19908;-77
2023/01/25 10:04:15;;;;;;;;;;;154.00;2252.80;;;;;;5016934;28;20372;-77
2023/01/25 10:06:44;;;;;;;;;;;153.90;2252.80;;;;;;5016758;28;19948;-77
2023/01/25 10:09:29;;;;;;;;;;;153.90;2252.80;;;;;;5037614;28;19905;-77
2023/01/25 10:11:56;;;;;;;;;;;153.90;2252.80;;;;;;5016360;28;19935;-77
2023/01/25 10:14:21;;;;;;;;;;;154.00;2252.80;;;;;;5037668;28;19905;-77
2023/01/25 10:16:48;;;;;;;;;;;154.00;2252.80;;;;;;5016010;28;19912;-77
2023/01/25 10:19:21;;;;;;;;;;;153.90;2252.80;;;;;;5040648;28;20343;-77
2023/01/25 10:22:05;;;;;;;;;;;153.80;2252.80;;;;;;5032579;28;19924;-77
2023/01/25 10:24:31;;;;;;;;;;;153.80;2252.80;;;;;;5016766;28;19912;-77
2023/01/25 10:27:01;;;;;;;;;;;153.80;2252.80;;;;;;5018725;28;20289;-76
2023/01/25 10:29:29;;;;;;;;;;;153.70;2252.80;;;;;;5016287;28;20003;-77
2023/01/25 10:32:15;;;;;;;;;;;153.80;2252.80;;;;;;5017142;28;19996;-77
2023/01/25 10:34:45;;;;;;;;;;;153.80;2252.80;;;;;;5020613;28;19905;-77
2023/01/25 10:37:15;;;;;;;;;;;153.80;2252.80;;;;;;5015723;28;20382;-77
2023/01/25 10:39:53;;;;;;;;;;;153.80;2252.80;;;;;;5015971;28;20282;-77
2023/01/25 10:42:19;;;;;;;;;;;153.80;2252.80;;;;;;5012730;28;19959;-76
2023/01/25 10:44:44;;;;;;;;;;;153.90;2252.80;;;;;;5016790;28;19905;-77
2023/01/25 10:47:25;;;;;;;;;;;154.10;2252.80;;;;;;5016124;28;20282;-77
2023/01/25 10:49:54;;;;;;;;;;;154.00;2252.80;;;;;;5035178;28;19917;-77
2023/01/25 10:52:22;;;;;;;;;;;154.00;2252.80;;;;;;5034353;28;20000;-76
2023/01/25 10:54:51;;;;;;;;;;;154.00;2252.80;;;;;;5007821;28;19966;-77
2023/01/25 10:57:18;;;;;;;;;;;154.10;2252.80;;;;;;5036784;28;19913;-77
2023/01/25 10:59:51;;;;;;;;;;;154.10;2252.80;;;;;;5036161;28;20374;-77
2023/01/25 11:02:37;;;;;;;;;;;153.80;2252.80;;;;;;5015055;28;19909;-77
2023/01/25 11:05:18;;;;;;;;;;;153.80;2252.80;;;;;;5032288;28;19905;-76
2023/01/25 11:07:47;;;;;;;;;;;153.80;2252.80;;;;;;5036656;28;20356;-77
2023/01/25 11:10:33;;;;;;;;;;;154.00;2252.80;;;;;;5017500;28;19917;-78
2023/01/25 11:13:14;;;;;;;;;;;154.00;2252.80;;;;;;5013336;28;19905;-83
2023/01/25 11:15:40;;;;;;;;;;;154.10;2252.80;;;;;;5017211;28;19905;-82
2023/01/25 11:18:11;;;;;;;;;;;154.10;2252.80;;;;;;5017553;28;19905;-79
2023/01/25 11:20:36;;;;;;;;;;;154.00;2252.80;;;;;;5017551;28;19928;-81
2023/01/25 11:23:02;;;;;;;;;;;154.00;2252.80;;;;;;5043775;28;19996;-80
2023/01/25 11:25:29;;;;;;;;;;;154.10;2252.80;;;;;;5016823;28;19905;-80
2023/01/25 11:28:31;;;;;;;;;;;153.80;2252.80;;;;;;5042274;28;19905;-80
2023/01/25 11:30:56;;;;;;;;;;;154.00;2252.80;;;;;;4984547;28;19917;-82
2023/01/25 11:33:25;;;;;;;;;;;154.10;2252.80;;;;;;4977901;28;19918;-81
2023/01/25 11:35:53;;;;;;;;;;;154.20;2252.80;;;;;;4979368;28;19941;-80
2023/01/25 11:38:21;;;;;;;;;;;154.30;2252.80;;;;;;4961864;28;20263;-79
2023/01/25 11:40:55;;;;;;;;;;;154.30;2252.80;;;;;;4973948;28;19910;-79
2023/01/25 11:43:33;;;;;;;;;;;154.50;2252.80;;;;;;4971394;28;19906;-80
2023/01/25 11:46:31;;;;;;;;;;;154.40;2252.80;;;;;;4974074;28;20006;-79
2023/01/25 11:49:03;;;;;;;;;;;154.30;2252.80;;;;;;4902768;29;19915;-81
2023/01/25 11:51:34;;;;;;;;;;;154.40;2252.80;;;;;;4910338;29;19923;-83
2023/01/25 11:54:18;;;;;;;;;;;154.50;2252.80;;;;;;4903171;29;19976;-84
2023/01/25 11:56:50;;;;;;;;;;;154.40;2252.80;;;;;;4894845;29;19911;-85
2023/01/25 11:59:29;;;;;;;;;;;154.50;2252.80;;;;;;4890178;29;19923;-82
2023/01/25 12:02:14;;;;;;;;;;;179.20;2252.80;;;;;;4893673;29;19907;-79
2023/01/25 12:04:57;;;;;;;;;;;154.50;2252.80;;;;;;4927261;28;19918;-83
2023/01/25 12:07:32;;;;;;;;;;;154.40;2252.80;;;;;;4965872;28;20360;-79
2023/01/25 12:10:13;;;;;;;;;;;154.30;2252.80;;;;;;4938055;28;19993;-76
2023/01/25 12:12:40;;;;;;;;;;;154.40;2252.80;;;;;;4958824;28;20400;-75
2023/01/25 12:15:42;;;;;;;;;;;154.30;2252.80;;;;;;4939551;29;19907;-77
2023/01/25 12:18:27;;;;;;;;;;;154.20;2252.80;;;;;;4882834;29;19994;-77
2023/01/25 12:20:56;;;;;;;;;;;154.10;2252.80;;;;;;4894958;29;19954;-76
2023/01/25 12:23:21;;;;;;;;;;;154.10;2252.80;;;;;;4899261;29;19916;-75
2023/01/25 12:25:59;;;;;;;;;;;154.00;2252.80;;;;;;4937372;29;19942;-78
2023/01/25 12:28:28;;;;;;;;;;;154.10;2252.80;;;;;;4936924;29;20009;-77
2023/01/25 12:31:13;;;;;;;;;;;153.90;2252.80;;;;;;4936843;29;19970;-78
2023/01/25 12:33:46;;;;;;;;;;;153.90;2252.80;;;;;;4936595;29;19910;-77
2023/01/25 12:36:19;;;;;;;;;;;154.00;2252.80;;;;;;4936493;29;19913;-76
2023/01/25 12:38:50;;;;;;;;;;;154.00;2252.80;;;;;;4937670;29;20366;-76
2023/01/25 12:41:19;;;;;;;;;;;154.00;2252.80;;;;;;4936284;29;19906;-75
2023/01/25 12:43:47;;;;;;;;;;;154.10;2252.80;;;;;;4936209;29;19907;-75
2023/01/25 12:46:25;;;;;;;;;;;154.00;2252.80;;;;;;4930938;29;19973;-74
2023/01/25 12:48:52;;;;;;;;;;;154.10;2252.80;;;;;;4936223;29;19910;-76
2023/01/25 12:51:19;;;;;;;;;;;154.10;2252.80;;;;;;4952634;28;20424;-77
2023/01/25 12:53:48;;;;;;;;;;;154.10;2252.80;;;;;;5017715;28;20377;-79
2023/01/25 12:56:25;;;;;;;;;;;154.20;2252.80;;;;;;5031334;28;19924;-77
2023/01/25 12:58:54;;;;;;;;;;;154.30;2252.80;;;;;;5017098;28;19921;-76
2023/01/25 13:01:25;;;;;;;;;;;154.10;2252.80;;;;;;5017278;28;19905;-77
2023/01/25 13:04:04;;;;;;;;;;;154.10;2252.80;;;;;;5017580;28;19959;-79
2023/01/25 13:06:40;;;;;;;;;;;154.20;2252.80;;;;;;5017721;28;19905;-78
2023/01/25 13:09:20;;;;;;;;;;;154.10;2252.80;;;;;;5035220;28;19996;-78
2023/01/25 13:11:46;;;;;;;;;;;154.20;2252.80;;;;;;5034006;28;19988;-75
2023/01/25 13:14:15;;;;;;;;;;;154.10;2252.80;;;;;;5035377;28;19905;-82
2023/01/25 13:16:47;;;;;;;;;;;154.30;2252.80;;;;;;5018190;28;19908;-79
2023/01/25 13:19:19;;;;;;;;;;;154.20;2252.80;;;;;;5013678;28;20000;-78
2023/01/25 13:21:45;;;;;;;;;;;154.20;2252.80;;;;;;5017224;28;19913;-76
2023/01/25 13:24:18;;;;;;;;;;;154.10;2252.80;;;;;;5018731;28;19959;-77
2023/01/25 13:26:47;;;;;;;;;;;154.10;2252.80;;;;;;5017614;28;19904;-79
2023/01/25 13:29:32;;;;;;;;;;;154.10;2252.80;;;;;;5017747;28;19905;-78
2023/01/25 13:31:58;;;;;;;;;;;154.10;2252.80;;;;;;5015653;28;19913;-78
2023/01/25 13:34:39;;;;;;;;;;;154.20;2252.80;;;;;;5032102;28;19912;-77
2023/01/25 13:37:23;;;;;;;;;;;154.30;2252.80;;;;;;5014517;28;19905;-77
2023/01/25 13:39:48;;;;;;;;;;;154.40;2252.80;;;;;;5013130;28;19909;-78
2023/01/25 13:42:17;;;;;;;;;;;154.30;2252.80;;;;;;5016870;28;19905;-78
2023/01/25 13:44:44;;;;;;;;;;;154.40;2252.80;;;;;;5016953;28;20420;-78
2023/01/25 13:47:12;;;;;;;;;;;154.50;2252.80;;;;;;5021319;28;20406;-76
2023/01/25 13:49:56;;;;;;;;;;;179.20;2252.80;;;;;;5034134;28;19911;-76